sensor_id;sensor_type;location;lat;lon;timestamp;P1;durP1;ratioP1;P2;durP2;ratioP2
71707;SDS011;59556;37.994;-122.332;2022-07-23T00:01:01;12.15;;;4.18;;
71707;SDS011;59556;37.994;-122.332;2022-07-23T00:03:28;11.82;;;4.47;;
71707;SDS011;59556;37.994;-122.332;2022-07-23T00:05:54;13.60;;;4.25;;
71707;SDS011;59556;37.994;-122.332;2022-07-23T00:08:20;12.70;;;3.75;;
71707;SDS011;59556;37.994;-122.332;2022-07-23T00:10:47;11.27;;;3.88;;
71707;SDS011;59556;37.994;-122.332;2022-07-23T00:13:13;10.93;;;4.05;;
71707;SDS011;59556;37.994;-122.332;2022-07-23T00:15:39;10.88;;;3.42;;
71707;SDS011;59556;37.994;-122.332;2022-07-23T00:18:06;14.10;;;4.22;;
71707;SDS011;59556;37.994;-122.332;2022-07-23T00:20:32;11.65;;;3.80;;
71707;SDS011;59556;37.994;-122.332;2022-07-23T00:22:58;11.98;;;4.05;;
71707;SDS011;59556;37.994;-122.332;2022-07-23T00:25:26;18.80;;;5.18;;
71707;SDS011;59556;37.994;-122.332;2022-07-23T00:27:52;11.88;;;4.25;;
71707;SDS011;59556;37.994;-122.332;2022-07-23T00:30:18;17.73;;;5.35;;
71707;SDS011;59556;37.994;-122.332;2022-07-23T00:32:48;12.85;;;4.03;;
71707;SDS011;59556;37.994;-122.332;2022-07-23T00:35:16;11.90;;;4.18;;
71707;SDS011;59556;37.994;-122.332;2022-07-23T00:37:46;8.20;;;3.30;;
71707;SDS011;59556;37.994;-122.332;2022-07-23T00:40:12;12.85;;;3.50;;
71707;SDS011;59556;37.994;-122.332;2022-07-23T00:42:39;11.18;;;3.55;;
71707;SDS011;59556;37.994;-122.332;2022-07-23T00:45:05;13.57;;;4.30;;
71707;SDS011;59556;37.994;-122.332;2022-07-23T00:47:32;11.30;;;3.92;;
71707;SDS011;59556;37.994;-122.332;2022-07-23T00:50:01;13.15;;;4.38;;
71707;SDS011;59556;37.994;-122.332;2022-07-23T00:52:29;14.40;;;4.37;;
71707;SDS011;59556;37.994;-122.332;2022-07-23T00:54:55;14.40;;;3.95;;
71707;SDS011;59556;37.994;-122.332;2022-07-23T00:57:22;10.77;;;3.80;;
71707;SDS011;59556;37.994;-122.332;2022-07-23T00:59:48;12.05;;;4.10;;
71707;SDS011;59556;37.994;-122.332;2022-07-23T01:02:14;12.18;;;3.58;;
71707;SDS011;59556;37.994;-122.332;2022-07-23T01:04:41;13.88;;;4.03;;
71707;SDS011;59556;37.994;-122.332;2022-07-23T01:07:07;15.32;;;4.53;;
71707;SDS011;59556;37.994;-122.332;2022-07-23T01:09:34;9.77;;;3.67;;
71707;SDS011;59556;37.994;-122.332;2022-07-23T01:12:00;14.18;;;3.80;;
71707;SDS011;59556;37.994;-122.332;2022-07-23T01:14:26;8.85;;;3.65;;
71707;SDS011;59556;37.994;-122.332;2022-07-23T01:16:53;10.18;;;4.40;;
71707;SDS011;59556;37.994;-122.332;2022-07-23T01:19:19;10.18;;;3.95;;
71707;SDS011;59556;37.994;-122.332;2022-07-23T01:21:49;11.88;;;4.25;;
71707;SDS011;59556;37.994;-122.332;2022-07-23T01:24:17;13.25;;;4.30;;
71707;SDS011;59556;37.994;-122.332;2022-07-23T01:26:47;11.18;;;3.63;;
71707;SDS011;59556;37.994;-122.332;2022-07-23T01:29:14;10.07;;;3.30;;
71707;SDS011;59556;37.994;-122.332;2022-07-23T01:31:41;11.02;;;4.25;;
71707;SDS011;59556;37.994;-122.332;2022-07-23T01:34:08;12.60;;;4.97;;
71707;SDS011;59556;37.994;-122.332;2022-07-23T01:36:35;12.18;;;3.92;;
71707;SDS011;59556;37.994;-122.332;2022-07-23T01:39:05;11.77;;;4.00;;
71707;SDS011;59556;37.994;-122.332;2022-07-23T01:41:32;15.55;;;4.85;;
71707;SDS011;59556;37.994;-122.332;2022-07-23T01:43:59;14.50;;;4.07;;
71707;SDS011;59556;37.994;-122.332;2022-07-23T01:46:25;12.80;;;4.47;;
71707;SDS011;59556;37.994;-122.332;2022-07-23T01:48:52;10.20;;;3.78;;
71707;SDS011;59556;37.994;-122.332;2022-07-23T01:51:18;10.40;;;3.88;;
71707;SDS011;59556;37.994;-122.332;2022-07-23T01:53:44;13.70;;;4.03;;
71707;SDS011;59556;37.994;-122.332;2022-07-23T01:56:11;10.90;;;3.92;;
71707;SDS011;59556;37.994;-122.332;2022-07-23T01:58:37;11.25;;;3.92;;
71707;SDS011;59556;37.994;-122.332;2022-07-23T02:01:03;11.13;;;3.90;;
71707;SDS011;59556;37.994;-122.332;2022-07-23T02:03:29;13.63;;;3.78;;
71707;SDS011;59556;37.994;-122.332;2022-07-23T02:05:56;13.40;;;4.28;;
71707;SDS011;59556;37.994;-122.332;2022-07-23T02:08:22;11.52;;;3.83;;
71707;SDS011;59556;37.994;-122.332;2022-07-23T02:10:48;12.80;;;4.22;;
71707;SDS011;59556;37.994;-122.332;2022-07-23T02:13:16;12.35;;;3.95;;
71707;SDS011;59556;37.994;-122.332;2022-07-23T02:15:43;12.52;;;4.30;;
71707;SDS011;59556;37.994;-122.332;2022-07-23T02:18:10;11.20;;;3.95;;
71707;SDS011;59556;37.994;-122.332;2022-07-23T02:20:37;13.88;;;3.88;;
71707;SDS011;59556;37.994;-122.332;2022-07-23T02:23:04;10.55;;;3.90;;
71707;SDS011;59556;37.994;-122.332;2022-07-23T02:25:31;11.60;;;4.00;;
71707;SDS011;59556;37.994;-122.332;2022-07-23T02:27:57;9.80;;;3.80;;
71707;SDS011;59556;37.994;-122.332;2022-07-23T02:30:23;11.75;;;4.57;;
71707;SDS011;59556;37.994;-122.332;2022-07-23T02:32:49;9.98;;;3.25;;
71707;SDS011;59556;37.994;-122.332;2022-07-23T02:35:16;10.25;;;3.67;;
71707;SDS011;59556;37.994;-122.332;2022-07-23T02:37:42;11.25;;;4.03;;
71707;SDS011;59556;37.994;-122.332;2022-07-23T02:40:08;10.13;;;3.80;;
71707;SDS011;59556;37.994;-122.332;2022-07-23T02:42:35;10.63;;;3.55;;
71707;SDS011;59556;37.994;-122.332;2022-07-23T02:45:01;8.70;;;3.50;;
71707;SDS011;59556;37.994;-122.332;2022-07-23T02:47:27;11.25;;;4.43;;
71707;SDS011;59556;37.994;-122.332;2022-07-23T02:49:54;11.70;;;4.35;;
71707;SDS011;59556;37.994;-122.332;2022-07-23T02:52:20;8.93;;;3.63;;
71707;SDS011;59556;37.994;-122.332;2022-07-23T02:54:47;11.00;;;3.53;;
71707;SDS011;59556;37.994;-122.332;2022-07-23T02:57:13;14.30;;;4.20;;
71707;SDS011;59556;37.994;-122.332;2022-07-23T02:59:39;14.68;;;4.43;;
71707;SDS011;59556;37.994;-122.332;2022-07-23T03:02:05;14.15;;;3.88;;
71707;SDS011;59556;37.994;-122.332;2022-07-23T03:04:32;12.27;;;4.13;;
71707;SDS011;59556;37.994;-122.332;2022-07-23T03:06:58;12.70;;;4.45;;
71707;SDS011;59556;37.994;-122.332;2022-07-23T03:09:24;11.27;;;4.60;;
71707;SDS011;59556;37.994;-122.332;2022-07-23T03:11:50;15.85;;;5.32;;
71707;SDS011;59556;37.994;-122.332;2022-07-23T03:14:16;12.32;;;5.25;;
71707;SDS011;59556;37.994;-122.332;2022-07-23T03:16:43;16.40;;;5.40;;
71707;SDS011;59556;37.994;-122.332;2022-07-23T03:19:09;15.90;;;5.45;;
71707;SDS011;59556;37.994;-122.332;2022-07-23T03:21:35;12.20;;;5.05;;
71707;SDS011;59556;37.994;-122.332;2022-07-23T03:24:06;16.15;;;5.32;;
71707;SDS011;59556;37.994;-122.332;2022-07-23T03:26:34;12.85;;;5.20;;
71707;SDS011;59556;37.994;-122.332;2022-07-23T03:29:01;16.23;;;5.30;;
71707;SDS011;59556;37.994;-122.332;2022-07-23T03:31:29;14.43;;;4.75;;
71707;SDS011;59556;37.994;-122.332;2022-07-23T03:33:56;14.38;;;5.13;;
71707;SDS011;59556;37.994;-122.332;2022-07-23T03:36:23;11.43;;;4.78;;
71707;SDS011;59556;37.994;-122.332;2022-07-23T03:38:49;15.25;;;5.25;;
71707;SDS011;59556;37.994;-122.332;2022-07-23T03:41:16;11.68;;;5.25;;
71707;SDS011;59556;37.994;-122.332;2022-07-23T03:43:43;15.88;;;5.10;;
71707;SDS011;59556;37.994;-122.332;2022-07-23T03:46:09;17.08;;;5.90;;
71707;SDS011;59556;37.994;-122.332;2022-07-23T03:48:35;12.10;;;5.32;;
71707;SDS011;59556;37.994;-122.332;2022-07-23T03:51:02;10.25;;;4.50;;
71707;SDS011;59556;37.994;-122.332;2022-07-23T03:53:28;13.27;;;4.97;;
71707;SDS011;59556;37.994;-122.332;2022-07-23T03:55:55;11.93;;;4.55;;
71707;SDS011;59556;37.994;-122.332;2022-07-23T03:58:21;12.40;;;5.03;;
71707;SDS011;59556;37.994;-122.332;2022-07-23T04:00:47;12.38;;;5.57;;
71707;SDS011;59556;37.994;-122.332;2022-07-23T04:03:13;12.45;;;4.93;;
71707;SDS011;59556;37.994;-122.332;2022-07-23T04:05:39;12.05;;;4.63;;
71707;SDS011;59556;37.994;-122.332;2022-07-23T04:08:06;15.35;;;4.68;;
71707;SDS011;59556;37.994;-122.332;2022-07-23T04:10:32;9.15;;;4.25;;
71707;SDS011;59556;37.994;-122.332;2022-07-23T04:12:58;11.50;;;4.63;;
71707;SDS011;59556;37.994;-122.332;2022-07-23T04:15:25;10.25;;;4.32;;
71707;SDS011;59556;37.994;-122.332;2022-07-23T04:17:51;12.38;;;5.30;;
71707;SDS011;59556;37.994;-122.332;2022-07-23T04:20:18;13.98;;;5.50;;
71707;SDS011;59556;37.994;-122.332;2022-07-23T04:22:44;11.43;;;4.40;;
71707;SDS011;59556;37.994;-122.332;2022-07-23T04:25:10;12.70;;;4.18;;
71707;SDS011;59556;37.994;-122.332;2022-07-23T04:27:36;10.10;;;4.10;;
71707;SDS011;59556;37.994;-122.332;2022-07-23T04:30:03;11.82;;;4.32;;
71707;SDS011;59556;37.994;-122.332;2022-07-23T04:32:29;9.88;;;4.05;;
71707;SDS011;59556;37.994;-122.332;2022-07-23T04:34:56;10.45;;;4.05;;
71707;SDS011;59556;37.994;-122.332;2022-07-23T04:37:22;9.23;;;3.50;;
71707;SDS011;59556;37.994;-122.332;2022-07-23T04:39:48;10.57;;;4.05;;
71707;SDS011;59556;37.994;-122.332;2022-07-23T04:42:14;11.50;;;4.95;;
71707;SDS011;59556;37.994;-122.332;2022-07-23T04:44:40;9.70;;;3.70;;
71707;SDS011;59556;37.994;-122.332;2022-07-23T04:47:07;8.35;;;3.80;;
71707;SDS011;59556;37.994;-122.332;2022-07-23T04:49:33;11.85;;;4.22;;
71707;SDS011;59556;37.994;-122.332;2022-07-23T04:51:59;9.60;;;3.75;;
71707;SDS011;59556;37.994;-122.332;2022-07-23T04:54:25;12.05;;;4.35;;
71707;SDS011;59556;37.994;-122.332;2022-07-23T04:56:52;10.02;;;4.22;;
71707;SDS011;59556;37.994;-122.332;2022-07-23T04:59:18;10.98;;;3.88;;
71707;SDS011;59556;37.994;-122.332;2022-07-23T05:01:44;11.57;;;3.90;;
71707;SDS011;59556;37.994;-122.332;2022-07-23T05:04:10;7.43;;;3.80;;
71707;SDS011;59556;37.994;-122.332;2022-07-23T05:06:37;8.95;;;3.92;;
71707;SDS011;59556;37.994;-122.332;2022-07-23T05:09:03;9.50;;;3.97;;
71707;SDS011;59556;37.994;-122.332;2022-07-23T05:11:29;11.30;;;3.78;;
71707;SDS011;59556;37.994;-122.332;2022-07-23T05:13:55;8.82;;;3.88;;
71707;SDS011;59556;37.994;-122.332;2022-07-23T05:16:22;9.60;;;3.72;;
71707;SDS011;59556;37.994;-122.332;2022-07-23T05:18:48;7.78;;;3.72;;
71707;SDS011;59556;37.994;-122.332;2022-07-23T05:21:14;11.45;;;4.50;;
71707;SDS011;59556;37.994;-122.332;2022-07-23T05:23:40;7.25;;;3.40;;
71707;SDS011;59556;37.994;-122.332;2022-07-23T05:26:06;8.95;;;3.67;;
71707;SDS011;59556;37.994;-122.332;2022-07-23T05:28:33;8.32;;;3.63;;
71707;SDS011;59556;37.994;-122.332;2022-07-23T05:30:59;9.07;;;3.42;;
71707;SDS011;59556;37.994;-122.332;2022-07-23T05:33:26;11.85;;;3.58;;
71707;SDS011;59556;37.994;-122.332;2022-07-23T05:35:52;9.05;;;3.50;;
71707;SDS011;59556;37.994;-122.332;2022-07-23T05:38:18;9.38;;;3.80;;
71707;SDS011;59556;37.994;-122.332;2022-07-23T05:40:45;8.07;;;3.38;;
71707;SDS011;59556;37.994;-122.332;2022-07-23T05:43:11;11.13;;;3.65;;
71707;SDS011;59556;37.994;-122.332;2022-07-23T05:45:37;10.10;;;4.20;;
71707;SDS011;59556;37.994;-122.332;2022-07-23T05:48:04;8.82;;;3.95;;
71707;SDS011;59556;37.994;-122.332;2022-07-23T05:50:30;8.32;;;3.92;;
71707;SDS011;59556;37.994;-122.332;2022-07-23T05:52:56;8.63;;;3.47;;
71707;SDS011;59556;37.994;-122.332;2022-07-23T05:55:23;9.57;;;3.25;;
71707;SDS011;59556;37.994;-122.332;2022-07-23T05:57:49;10.07;;;3.90;;
71707;SDS011;59556;37.994;-122.332;2022-07-23T06:00:15;9.73;;;3.67;;
71707;SDS011;59556;37.994;-122.332;2022-07-23T06:02:41;8.88;;;3.83;;
71707;SDS011;59556;37.994;-122.332;2022-07-23T06:05:08;10.20;;;3.38;;
71707;SDS011;59556;37.994;-122.332;2022-07-23T06:07:34;7.32;;;3.10;;
71707;SDS011;59556;37.994;-122.332;2022-07-23T06:10:01;10.15;;;3.47;;
71707;SDS011;59556;37.994;-122.332;2022-07-23T06:12:28;8.27;;;3.53;;
71707;SDS011;59556;37.994;-122.332;2022-07-23T06:14:54;8.57;;;3.72;;
71707;SDS011;59556;37.994;-122.332;2022-07-23T06:17:20;8.63;;;3.35;;
71707;SDS011;59556;37.994;-122.332;2022-07-23T06:19:46;7.18;;;3.35;;
71707;SDS011;59556;37.994;-122.332;2022-07-23T06:22:13;6.25;;;3.33;;
71707;SDS011;59556;37.994;-122.332;2022-07-23T06:24:40;6.65;;;2.75;;
71707;SDS011;59556;37.994;-122.332;2022-07-23T06:27:07;6.90;;;3.28;;
71707;SDS011;59556;37.994;-122.332;2022-07-23T06:29:33;6.45;;;3.58;;
71707;SDS011;59556;37.994;-122.332;2022-07-23T06:31:59;8.30;;;3.38;;
71707;SDS011;59556;37.994;-122.332;2022-07-23T06:34:26;8.18;;;3.33;;
71707;SDS011;59556;37.994;-122.332;2022-07-23T06:36:52;7.25;;;3.75;;
71707;SDS011;59556;37.994;-122.332;2022-07-23T06:39:18;7.45;;;3.35;;
71707;SDS011;59556;37.994;-122.332;2022-07-23T06:41:45;6.35;;;2.95;;
71707;SDS011;59556;37.994;-122.332;2022-07-23T06:44:11;8.73;;;3.58;;
71707;SDS011;59556;37.994;-122.332;2022-07-23T06:46:37;8.43;;;2.80;;
71707;SDS011;59556;37.994;-122.332;2022-07-23T06:49:03;9.70;;;4.47;;
71707;SDS011;59556;37.994;-122.332;2022-07-23T06:51:30;7.97;;;3.17;;
71707;SDS011;59556;37.994;-122.332;2022-07-23T06:53:56;6.78;;;3.00;;
71707;SDS011;59556;37.994;-122.332;2022-07-23T06:56:22;6.13;;;2.85;;
71707;SDS011;59556;37.994;-122.332;2022-07-23T06:58:48;7.05;;;3.30;;
71707;SDS011;59556;37.994;-122.332;2022-07-23T07:01:15;7.95;;;3.42;;
71707;SDS011;59556;37.994;-122.332;2022-07-23T07:03:41;7.60;;;3.40;;
71707;SDS011;59556;37.994;-122.332;2022-07-23T07:06:07;11.73;;;3.92;;
71707;SDS011;59556;37.994;-122.332;2022-07-23T07:08:33;9.40;;;3.45;;
71707;SDS011;59556;37.994;-122.332;2022-07-23T07:11:00;8.60;;;3.60;;
71707;SDS011;59556;37.994;-122.332;2022-07-23T07:13:26;8.30;;;3.28;;
71707;SDS011;59556;37.994;-122.332;2022-07-23T07:15:52;8.30;;;3.60;;
71707;SDS011;59556;37.994;-122.332;2022-07-23T07:18:18;9.10;;;3.08;;
71707;SDS011;59556;37.994;-122.332;2022-07-23T07:20:45;8.43;;;3.67;;
71707;SDS011;59556;37.994;-122.332;2022-07-23T07:23:12;10.30;;;3.67;;
71707;SDS011;59556;37.994;-122.332;2022-07-23T07:25:38;7.18;;;3.40;;
71707;SDS011;59556;37.994;-122.332;2022-07-23T07:28:04;8.82;;;3.72;;
71707;SDS011;59556;37.994;-122.332;2022-07-23T07:30:31;7.85;;;3.25;;
71707;SDS011;59556;37.994;-122.332;2022-07-23T07:32:57;10.43;;;3.90;;
71707;SDS011;59556;37.994;-122.332;2022-07-23T07:35:24;11.48;;;4.28;;
71707;SDS011;59556;37.994;-122.332;2022-07-23T07:37:50;10.73;;;3.75;;
71707;SDS011;59556;37.994;-122.332;2022-07-23T07:40:17;11.20;;;3.35;;
71707;SDS011;59556;37.994;-122.332;2022-07-23T07:42:46;9.80;;;3.55;;
71707;SDS011;59556;37.994;-122.332;2022-07-23T07:45:13;9.43;;;3.70;;
71707;SDS011;59556;37.994;-122.332;2022-07-23T07:47:40;8.43;;;3.05;;
71707;SDS011;59556;37.994;-122.332;2022-07-23T07:50:07;9.95;;;3.67;;
71707;SDS011;59556;37.994;-122.332;2022-07-23T07:52:34;9.32;;;4.03;;
71707;SDS011;59556;37.994;-122.332;2022-07-23T07:55:04;11.18;;;4.43;;
71707;SDS011;59556;37.994;-122.332;2022-07-23T07:57:32;12.35;;;4.40;;
71707;SDS011;59556;37.994;-122.332;2022-07-23T07:59:58;15.25;;;4.13;;
71707;SDS011;59556;37.994;-122.332;2022-07-23T08:02:24;10.05;;;4.50;;
71707;SDS011;59556;37.994;-122.332;2022-07-23T08:04:51;10.13;;;4.50;;
71707;SDS011;59556;37.994;-122.332;2022-07-23T08:07:17;11.10;;;4.18;;
71707;SDS011;59556;37.994;-122.332;2022-07-23T08:09:44;7.07;;;3.40;;
71707;SDS011;59556;37.994;-122.332;2022-07-23T08:12:10;8.68;;;3.47;;
71707;SDS011;59556;37.994;-122.332;2022-07-23T08:14:36;7.60;;;3.15;;
71707;SDS011;59556;37.994;-122.332;2022-07-23T08:17:02;8.75;;;4.22;;
71707;SDS011;59556;37.994;-122.332;2022-07-23T08:19:29;9.98;;;3.92;;
71707;SDS011;59556;37.994;-122.332;2022-07-23T08:21:55;9.02;;;4.25;;
71707;SDS011;59556;37.994;-122.332;2022-07-23T08:24:21;11.02;;;4.75;;
71707;SDS011;59556;37.994;-122.332;2022-07-23T08:26:47;12.85;;;4.78;;
71707;SDS011;59556;37.994;-122.332;2022-07-23T08:29:13;12.77;;;4.50;;
71707;SDS011;59556;37.994;-122.332;2022-07-23T08:31:40;11.20;;;4.03;;
71707;SDS011;59556;37.994;-122.332;2022-07-23T08:34:06;11.70;;;4.03;;
71707;SDS011;59556;37.994;-122.332;2022-07-23T08:36:32;11.80;;;4.32;;
71707;SDS011;59556;37.994;-122.332;2022-07-23T08:38:59;9.57;;;3.28;;
71707;SDS011;59556;37.994;-122.332;2022-07-23T08:41:27;11.95;;;3.30;;
71707;SDS011;59556;37.994;-122.332;2022-07-23T08:43:53;10.48;;;3.38;;
71707;SDS011;59556;37.994;-122.332;2022-07-23T08:46:20;10.68;;;3.78;;
71707;SDS011;59556;37.994;-122.332;2022-07-23T08:48:47;7.03;;;3.00;;
71707;SDS011;59556;37.994;-122.332;2022-07-23T08:51:14;12.68;;;4.35;;
71707;SDS011;59556;37.994;-122.332;2022-07-23T08:53:41;13.70;;;5.07;;
71707;SDS011;59556;37.994;-122.332;2022-07-23T08:56:08;11.40;;;3.92;;
71707;SDS011;59556;37.994;-122.332;2022-07-23T08:58:34;18.13;;;4.97;;
71707;SDS011;59556;37.994;-122.332;2022-07-23T09:01:01;11.40;;;4.72;;
71707;SDS011;59556;37.994;-122.332;2022-07-23T09:03:28;9.45;;;3.83;;
71707;SDS011;59556;37.994;-122.332;2022-07-23T09:05:59;10.25;;;3.90;;
71707;SDS011;59556;37.994;-122.332;2022-07-23T09:09:10;11.55;;;4.38;;
71707;SDS011;59556;37.994;-122.332;2022-07-23T09:11:21;9.38;;;3.35;;
71707;SDS011;59556;37.994;-122.332;2022-07-23T09:13:51;10.95;;;3.65;;
71707;SDS011;59556;37.994;-122.332;2022-07-23T09:16:20;8.48;;;3.25;;
71707;SDS011;59556;37.994;-122.332;2022-07-23T09:18:51;9.85;;;3.72;;
71707;SDS011;59556;37.994;-122.332;2022-07-23T09:21:26;5.32;;;2.45;;
71707;SDS011;59556;37.994;-122.332;2022-07-23T09:24:12;17.98;;;6.32;;
71707;SDS011;59556;37.994;-122.332;2022-07-23T09:26:45;12.52;;;3.88;;
71707;SDS011;59556;37.994;-122.332;2022-07-23T09:29:16;8.85;;;3.88;;
71707;SDS011;59556;37.994;-122.332;2022-07-23T09:31:48;10.52;;;3.65;;
71707;SDS011;59556;37.994;-122.332;2022-07-23T09:34:19;8.85;;;3.33;;
71707;SDS011;59556;37.994;-122.332;2022-07-23T09:36:49;8.90;;;3.17;;
71707;SDS011;59556;37.994;-122.332;2022-07-23T09:39:30;10.15;;;3.53;;
71707;SDS011;59556;37.994;-122.332;2022-07-23T09:41:58;7.88;;;3.40;;
71707;SDS011;59556;37.994;-122.332;2022-07-23T09:44:43;7.47;;;3.40;;
71707;SDS011;59556;37.994;-122.332;2022-07-23T09:47:09;6.80;;;2.88;;
71707;SDS011;59556;37.994;-122.332;2022-07-23T09:49:36;9.70;;;3.45;;
71707;SDS011;59556;37.994;-122.332;2022-07-23T09:52:02;9.10;;;3.13;;
71707;SDS011;59556;37.994;-122.332;2022-07-23T09:54:30;12.02;;;3.72;;
71707;SDS011;59556;37.994;-122.332;2022-07-23T09:56:59;10.27;;;4.65;;
71707;SDS011;59556;37.994;-122.332;2022-07-23T09:59:27;9.60;;;3.10;;
71707;SDS011;59556;37.994;-122.332;2022-07-23T10:01:56;7.43;;;2.85;;
71707;SDS011;59556;37.994;-122.332;2022-07-23T10:04:25;7.10;;;2.83;;
71707;SDS011;59556;37.994;-122.332;2022-07-23T10:06:53;6.45;;;3.33;;
71707;SDS011;59556;37.994;-122.332;2022-07-23T10:09:23;7.90;;;2.78;;
71707;SDS011;59556;37.994;-122.332;2022-07-23T10:11:52;8.88;;;3.15;;
71707;SDS011;59556;37.994;-122.332;2022-07-23T10:14:20;7.55;;;2.67;;
71707;SDS011;59556;37.994;-122.332;2022-07-23T10:22:42;5.53;;;2.30;;
71707;SDS011;59556;37.994;-122.332;2022-07-23T10:36:02;9.52;;;3.75;;
71707;SDS011;59556;37.994;-122.332;2022-07-23T10:41:34;9.50;;;3.03;;
71707;SDS011;59556;37.994;-122.332;2022-07-23T10:49:30;6.13;;;2.60;;
71707;SDS011;59556;37.994;-122.332;2022-07-23T10:54:43;5.95;;;2.55;;
71707;SDS011;59556;37.994;-122.332;2022-07-23T10:57:17;6.38;;;2.90;;
71707;SDS011;59556;37.994;-122.332;2022-07-23T11:02:31;7.85;;;2.85;;
71707;SDS011;59556;37.994;-122.332;2022-07-23T11:09:55;8.15;;;2.95;;
71707;SDS011;59556;37.994;-122.332;2022-07-23T11:17:26;4.45;;;2.22;;
71707;SDS011;59556;37.994;-122.332;2022-07-23T11:25:09;5.95;;;2.30;;
71707;SDS011;59556;37.994;-122.332;2022-07-23T11:27:48;5.35;;;2.42;;
71707;SDS011;59556;37.994;-122.332;2022-07-23T11:33:15;7.03;;;2.38;;
71707;SDS011;59556;37.994;-122.332;2022-07-23T11:35:42;8.18;;;3.35;;
71707;SDS011;59556;37.994;-122.332;2022-07-23T11:38:21;7.05;;;2.78;;
71707;SDS011;59556;37.994;-122.332;2022-07-23T11:40:52;9.55;;;3.40;;
71707;SDS011;59556;37.994;-122.332;2022-07-23T11:43:20;5.97;;;2.53;;
71707;SDS011;59556;37.994;-122.332;2022-07-23T11:45:58;6.07;;;2.42;;
71707;SDS011;59556;37.994;-122.332;2022-07-23T11:48:28;4.40;;;1.90;;
71707;SDS011;59556;37.994;-122.332;2022-07-23T11:50:55;5.18;;;2.53;;
71707;SDS011;59556;37.994;-122.332;2022-07-23T11:53:29;7.53;;;3.00;;
71707;SDS011;59556;37.994;-122.332;2022-07-23T11:56:04;6.55;;;2.35;;
71707;SDS011;59556;37.994;-122.332;2022-07-23T11:58:32;5.57;;;2.83;;
71707;SDS011;59556;37.994;-122.332;2022-07-23T12:00:58;6.68;;;3.10;;
71707;SDS011;59556;37.994;-122.332;2022-07-23T12:03:24;5.05;;;2.08;;
71707;SDS011;59556;37.994;-122.332;2022-07-23T12:05:55;6.50;;;1.88;;
71707;SDS011;59556;37.994;-122.332;2022-07-23T12:08:22;9.75;;;2.97;;
71707;SDS011;59556;37.994;-122.332;2022-07-23T12:10:49;6.60;;;3.25;;
71707;SDS011;59556;37.994;-122.332;2022-07-23T12:13:16;8.52;;;2.67;;
71707;SDS011;59556;37.994;-122.332;2022-07-23T12:15:44;4.00;;;2.15;;
71707;SDS011;59556;37.994;-122.332;2022-07-23T12:18:14;6.15;;;2.08;;
71707;SDS011;59556;37.994;-122.332;2022-07-23T12:20:43;8.07;;;2.55;;
71707;SDS011;59556;37.994;-122.332;2022-07-23T12:23:30;6.30;;;2.05;;
71707;SDS011;59556;37.994;-122.332;2022-07-23T12:26:00;5.35;;;2.10;;
71707;SDS011;59556;37.994;-122.332;2022-07-23T12:28:28;6.05;;;1.88;;
71707;SDS011;59556;37.994;-122.332;2022-07-23T12:30:58;3.63;;;2.05;;
71707;SDS011;59556;37.994;-122.332;2022-07-23T12:33:28;5.68;;;2.53;;
71707;SDS011;59556;37.994;-122.332;2022-07-23T12:36:00;6.53;;;2.33;;
71707;SDS011;59556;37.994;-122.332;2022-07-23T12:38:38;8.45;;;2.50;;
71707;SDS011;59556;37.994;-122.332;2022-07-23T12:41:06;6.22;;;2.45;;
71707;SDS011;59556;37.994;-122.332;2022-07-23T12:43:33;5.28;;;2.60;;
71707;SDS011;59556;37.994;-122.332;2022-07-23T12:46:09;8.80;;;2.90;;
71707;SDS011;59556;37.994;-122.332;2022-07-23T12:51:21;4.18;;;2.22;;
71707;SDS011;59556;37.994;-122.332;2022-07-23T12:53:50;4.82;;;2.45;;
71707;SDS011;59556;37.994;-122.332;2022-07-23T12:56:22;5.90;;;2.10;;
71707;SDS011;59556;37.994;-122.332;2022-07-23T12:58:56;4.55;;;1.98;;
71707;SDS011;59556;37.994;-122.332;2022-07-23T13:01:53;4.72;;;1.98;;
71707;SDS011;59556;37.994;-122.332;2022-07-23T13:04:21;3.78;;;1.75;;
71707;SDS011;59556;37.994;-122.332;2022-07-23T13:06:52;6.85;;;2.22;;
71707;SDS011;59556;37.994;-122.332;2022-07-23T13:09:23;5.43;;;2.30;;
71707;SDS011;59556;37.994;-122.332;2022-07-23T13:11:51;3.45;;;1.70;;
71707;SDS011;59556;37.994;-122.332;2022-07-23T13:14:19;10.32;;;3.83;;
71707;SDS011;59556;37.994;-122.332;2022-07-23T13:16:46;5.00;;;2.25;;
71707;SDS011;59556;37.994;-122.332;2022-07-23T13:19:13;4.10;;;2.03;;
71707;SDS011;59556;37.994;-122.332;2022-07-23T13:21:40;5.18;;;1.85;;
71707;SDS011;59556;37.994;-122.332;2022-07-23T13:24:07;3.88;;;1.95;;
71707;SDS011;59556;37.994;-122.332;2022-07-23T13:26:37;3.03;;;1.77;;
71707;SDS011;59556;37.994;-122.332;2022-07-23T13:29:04;6.25;;;2.10;;
71707;SDS011;59556;37.994;-122.332;2022-07-23T13:31:31;6.10;;;2.45;;
71707;SDS011;59556;37.994;-122.332;2022-07-23T13:33:57;5.03;;;2.05;;
71707;SDS011;59556;37.994;-122.332;2022-07-23T13:36:24;5.35;;;2.03;;
71707;SDS011;59556;37.994;-122.332;2022-07-23T13:38:50;7.57;;;2.33;;
71707;SDS011;59556;37.994;-122.332;2022-07-23T13:41:17;4.75;;;1.80;;
71707;SDS011;59556;37.994;-122.332;2022-07-23T13:43:43;4.38;;;1.83;;
71707;SDS011;59556;37.994;-122.332;2022-07-23T13:46:10;5.43;;;2.00;;
71707;SDS011;59556;37.994;-122.332;2022-07-23T13:48:36;3.70;;;1.92;;
71707;SDS011;59556;37.994;-122.332;2022-07-23T13:51:02;6.05;;;2.33;;
71707;SDS011;59556;37.994;-122.332;2022-07-23T13:53:29;4.80;;;2.05;;
71707;SDS011;59556;37.994;-122.332;2022-07-23T13:55:55;5.32;;;2.15;;
71707;SDS011;59556;37.994;-122.332;2022-07-23T13:58:22;5.10;;;2.00;;
71707;SDS011;59556;37.994;-122.332;2022-07-23T14:00:50;2.92;;;1.75;;
71707;SDS011;59556;37.994;-122.332;2022-07-23T14:03:17;4.18;;;1.80;;
71707;SDS011;59556;37.994;-122.332;2022-07-23T14:05:44;4.82;;;1.70;;
71707;SDS011;59556;37.994;-122.332;2022-07-23T14:08:10;4.13;;;2.05;;
71707;SDS011;59556;37.994;-122.332;2022-07-23T14:10:37;7.40;;;2.17;;
71707;SDS011;59556;37.994;-122.332;2022-07-23T14:13:03;5.00;;;2.00;;
71707;SDS011;59556;37.994;-122.332;2022-07-23T14:15:30;7.03;;;2.03;;
71707;SDS011;59556;37.994;-122.332;2022-07-23T14:17:57;5.78;;;2.10;;
71707;SDS011;59556;37.994;-122.332;2022-07-23T14:20:24;5.90;;;2.70;;
71707;SDS011;59556;37.994;-122.332;2022-07-23T14:22:50;6.03;;;2.65;;
71707;SDS011;59556;37.994;-122.332;2022-07-23T14:25:17;3.60;;;1.45;;
71707;SDS011;59556;37.994;-122.332;2022-07-23T14:27:43;4.45;;;1.83;;
71707;SDS011;59556;37.994;-122.332;2022-07-23T14:30:10;3.90;;;1.75;;
71707;SDS011;59556;37.994;-122.332;2022-07-23T14:32:37;5.28;;;1.67;;
71707;SDS011;59556;37.994;-122.332;2022-07-23T14:35:04;6.82;;;1.40;;
71707;SDS011;59556;37.994;-122.332;2022-07-23T14:37:32;5.93;;;1.48;;
71707;SDS011;59556;37.994;-122.332;2022-07-23T14:39:58;3.05;;;1.58;;
71707;SDS011;59556;37.994;-122.332;2022-07-23T14:42:24;3.00;;;1.50;;
71707;SDS011;59556;37.994;-122.332;2022-07-23T14:44:51;5.70;;;1.98;;
71707;SDS011;59556;37.994;-122.332;2022-07-23T14:47:17;5.35;;;2.17;;
71707;SDS011;59556;37.994;-122.332;2022-07-23T14:49:43;7.53;;;2.22;;
71707;SDS011;59556;37.994;-122.332;2022-07-23T14:52:10;3.00;;;1.52;;
71707;SDS011;59556;37.994;-122.332;2022-07-23T14:54:36;3.50;;;1.60;;
71707;SDS011;59556;37.994;-122.332;2022-07-23T14:57:03;3.58;;;2.10;;